METAR KEDE 192355Z AUTO 02005KT 4SM RA SCT004 BKN040 OVC060 02/02 A3010 RMK AO2 P0007 
METAR KEDE 192335Z AUTO 01004KT 4SM RA SCT004 OVC060 02/02 A3012 RMK AO2 P0003 
METAR KEDE 192315Z AUTO 01005KT 5SM -RA BKN004 OVC060 02/02 A3010 RMK AO2 P0001 
METAR KEDE 192255Z AUTO 02007KT 4SM -RA OVC004 02/02 A3007 RMK AO2 P0004 
METAR KEDE 192235Z AUTO 02006KT 4SM -RA BKN004 BKN018 OVC029 02/02 A3009 RMK AO2 P0003 
METAR KEDE 192215Z AUTO 02005KT 3SM -RA SCT004 BKN022 OVC065 02/02 A3010 RMK AO2 P0002 
METAR KEDE 192155Z AUTO 01005KT 4SM RA SCT006 BKN032 OVC065 02/02 A3012 RMK AO2 P0007 
METAR KEDE 192135Z AUTO 01007KT 3SM RA BKN006 BKN039 OVC065 02/02 A3012 RMK AO2 P0005 
METAR KEDE 192115Z AUTO 02003KT 2 1/2SM RA BKN006 BKN016 OVC065 02/02 A3012 RMK AO2 P0003 
METAR KEDE 192055Z AUTO 01005KT 3SM -RA BKN006 BKN018 OVC065 02/02 A3011 RMK AO2 P0008 
METAR KEDE 192035Z AUTO 01004KT 3SM RA SCT006 SCT022 OVC065 03/02 A3013 RMK AO2 P0005 
METAR KEDE 192015Z AUTO 03005KT 3SM -RA SCT008 BKN024 OVC065 03/02 A3012 RMK AO2 P0002 
METAR KEDE 191955Z AUTO 02004KT 4SM -RA SCT008 BKN028 OVC090 04/03 A3012 RMK AO2 P0003 
METAR KEDE 191935Z AUTO 04004KT 5SM RA SCT006 SCT011 BKN039 03/03 A3011 RMK AO2 P0002 
METAR KEDE 191915Z AUTO 03004KT 3SM -RA BKN006 BKN018 OVC028 04/03 A3011 RMK AO2 P0001 
METAR KEDE 191855Z AUTO 03005KT 4SM -RA SCT006 SCT018 BKN027 04/03 A3012 RMK AO2 P0005 
METAR KEDE 191835Z AUTO 01006KT 3SM -RA SCT006 BKN023 OVC029 04/03 A3015 RMK AO2 P0004 
METAR KEDE 191815Z AUTO 01004KT 4SM -RA SCT015 SCT023 BKN029 03/02 A3015 RMK AO2 P0002 
METAR KEDE 191815Z AUTO 01004KT 4SM -RA SCT015 SCT023 BKN029 03/02 A3015 RMK AO2 P0002 
METAR KEDE 191755Z AUTO 03005KT 4SM -RA SCT019 BKN031 OVC070 03/02 A3016 RMK AO2 P0004 
METAR KEDE 191735Z AUTO 04004KT 3SM -RA SCT020 BKN027 OVC050 03/02 A3016 RMK AO2 P0003 
METAR KEDE 191715Z AUTO 02004KT 4SM RA SCT037 OVC055 04/02 A3018 RMK AO2 P0001 
METAR KEDE 191655Z AUTO 01004KT 5SM -RA OVC055 04/02 A3019 RMK AO2 P0001 
METAR KEDE 191635Z AUTO 03005KT 5SM RA SCT032 SCT044 OVC055 04/02 A3018 RMK AO2 P0000 
METAR KEDE 191615Z AUTO 04004KT 5SM -RA SCT033 SCT046 OVC055 04/02 A3018 RMK AO2 P0000 
METAR KEDE 191555Z AUTO 01004KT 5SM -RA SCT031 OVC055 04/02 A3020 RMK AO2 P0003 
METAR KEDE 191535Z AUTO 03004KT 5SM -RA OVC065 04/02 A3020 RMK AO2 P0002 
METAR KEDE 191515Z AUTO 03004KT 7SM -RA SCT038 SCT045 OVC065 04/02 A3020 RMK AO2 P0000 
METAR KEDE 191455Z AUTO 02003KT 7SM -RA SCT038 BKN055 OVC075 04/02 A3020 RMK AO2 P0002 
METAR KEDE 191435Z AUTO 00000KT 7SM -RA SCT080 SCT095 04/01 A3019 RMK AO2 P0001 
METAR KEDE 191415Z AUTO 04004KT 7SM -RA SCT019 SCT028 SCT034 04/01 A3018 RMK AO2 P0001 
METAR KEDE 191355Z AUTO 04004KT 7SM RA SCT026 SCT034 BKN070 04/01 A3017 RMK AO2 P0000 
METAR KEDE 191335Z AUTO 05004KT 10SM -RA SCT060 BKN070 BKN085 04/00 A3018 RMK AO2 P0000 
METAR KEDE 191315Z AUTO 01005KT 10SM RA OVC060 05/01 A3020 RMK AO2 P0000 
METAR KEDE 191255Z AUTO 35003KT 10SM -RA OVC060 05/01 A3020 RMK AO2 P0000 
METAR KEDE 191235Z AUTO 00000KT 10SM DZ SCT060 OVC075 05/01 A3018 RMK AO2 P0000 
METAR KEDE 191215Z AUTO 00000KT 10SM SCT075 OVC085 05/01 A3017 RMK AO2 
METAR KEDE 191155Z AUTO 00000KT 10SM -DZ SCT065 OVC085 05/00 A3016 RMK AO2 P0000 
METAR KEDE 191135Z AUTO 01004KT 10SM -RA SCT065 BKN070 OVC085 05/00 A3016 RMK AO2 P0000 
METAR KEDE 191115Z AUTO 35003KT 10SM OVC065 06/00 A3017 RMK AO2 
METAR KEDE 191055Z AUTO 34004KT 10SM OVC065 06/M01 A3017 RMK AO2 
METAR KEDE 191035Z AUTO 34005KT 10SM OVC065 06/M01 A3016 RMK AO2 
METAR KEDE 191015Z AUTO 34005KT 10SM OVC065 06/M01 A3015 RMK AO2 
METAR KEDE 190955Z AUTO 32005KT 10SM OVC065 06/M01 A3017 RMK AO2 
METAR KEDE 190935Z AUTO 32004KT 10SM OVC065 06/M01 A3018 RMK AO2 
METAR KEDE 190915Z AUTO 31006KT 10SM OVC075 06/M01 A3017 RMK AO2 
METAR KEDE 190855Z AUTO 29003KT 10SM BKN075 OVC085 06/M01 A3014 RMK AO2 
METAR KEDE 190835Z AUTO 30006KT 10SM SCT065 BKN075 BKN085 06/M01 A3014 RMK AO2 
METAR KEDE 190815Z AUTO 30006KT 10SM SCT065 OVC080 06/M01 A3015 RMK AO2 
METAR KEDE 190755Z AUTO 30003KT 10SM SCT065 OVC080 06/M01 A3016 RMK AO2 
METAR KEDE 190735Z AUTO 31005KT 10SM OVC080 06/M01 A3018 RMK AO2 
METAR KEDE 190715Z AUTO 29007KT 10SM BKN090 BKN120 06/M01 A3019 RMK AO2 
METAR KEDE 190655Z AUTO 28008KT 10SM SCT090 SCT110 06/M01 A3017 RMK AO2 
METAR KEDE 190635Z AUTO 26005KT 10SM SCT090 SCT110 06/M01 A3015 RMK AO2 
METAR KEDE 190615Z AUTO 27005KT 10SM SCT080 06/M01 A3016 RMK AO2 
METAR KEDE 190555Z AUTO 30003KT 10SM CLR 06/M01 A3014 RMK AO2 
METAR KEDE 190535Z AUTO 28003KT 10SM CLR 06/M02 A3013 RMK AO2 
METAR KEDE 190515Z AUTO 28004KT 10SM CLR 06/M02 A3013 RMK AO2 
METAR KEDE 190455Z AUTO 27003KT 10SM SCT120 06/M02 A3013 RMK AO2 
METAR KEDE 190435Z AUTO 27006KT 10SM SCT120 06/M02 A3015 RMK AO2 
METAR KEDE 190415Z AUTO 27007KT 10SM SCT120 06/M01 A3016 RMK AO2 
METAR KEDE 190355Z AUTO 27003KT 10SM CLR 06/M01 A3013 RMK AO2 
METAR KEDE 190335Z AUTO 24003KT 10SM CLR 06/M02 A3012 RMK AO2 
METAR KEDE 190315Z AUTO 25004KT 10SM BKN080 06/M02 A3015 RMK AO2 
METAR KEDE 190255Z AUTO 27003KT 10SM OVC080 06/M02 A3017 RMK AO2 
METAR KEDE 190235Z AUTO 28004KT 10SM BKN090 BKN110 06/00 A3018 RMK AO2 
METAR KEDE 190215Z AUTO 00000KT 10SM SCT100 05/01 A3017 RMK AO2 
METAR KEDE 190155Z AUTO 00000KT 10SM CLR 05/01 A3016 RMK AO2 
METAR KEDE 190135Z AUTO 00000KT 10SM CLR 05/00 A3016 RMK AO2 
METAR KEDE 190115Z AUTO 00000KT 10SM CLR 06/M01 A3017 RMK AO2 
METAR KEDE 190055Z AUTO 00000KT 10SM CLR 06/00 A3018 RMK AO2 
METAR KEDE 190035Z AUTO 00000KT 10SM CLR 05/00 A3018 RMK AO2 
METAR KEDE 190015Z AUTO 34003KT 10SM CLR 05/00 A3017 RMK AO2 
METAR KEDE 182355Z AUTO 00000KT 10SM CLR 05/01 A3016 RMK AO2 
METAR KEDE 182335Z AUTO 00000KT 10SM CLR 05/01 A3014 RMK AO2 
METAR KEDE 182315Z AUTO 00000KT 10SM CLR 05/00 A3015 RMK AO2 
METAR KEDE 182255Z AUTO 00000KT 10SM CLR 06/00 A3016 RMK AO2 
METAR KEDE 182235Z AUTO 00000KT 10SM CLR 06/00 A3017 RMK AO2 
METAR KEDE 182215Z AUTO 00000KT 10SM CLR 06/00 A3017 RMK AO2 
METAR KEDE 182155Z AUTO 00000KT 10SM CLR 06/00 A3016 RMK AO2 
METAR KEDE 182135Z AUTO 00000KT 10SM CLR 06/00 A3017 RMK AO2 
METAR KEDE 182115Z AUTO 00000KT 10SM CLR 07/M01 A3017 RMK AO2 
METAR KEDE 182055Z AUTO 00000KT 10SM CLR 07/M01 A3018 RMK AO2 
METAR KEDE 182035Z AUTO 29003KT 10SM CLR 07/M01 A3019 RMK AO2 
METAR KEDE 182015Z AUTO 24003KT 10SM CLR 07/M01 A3018 RMK AO2 
METAR KEDE 181955Z AUTO 27004KT 10SM CLR 07/M01 A3018 RMK AO2 
METAR KEDE 181935Z AUTO 22003KT 10SM CLR 07/M01 A3016 RMK AO2 
METAR KEDE 181915Z AUTO 29003KT 10SM CLR 07/00 A3018 RMK AO2 
METAR KEDE 181855Z AUTO 24004KT 10SM CLR 07/00 A3017 RMK AO2 
METAR KEDE 181835Z AUTO 24003KT 10SM CLR 07/M01 A3018 RMK AO2 
METAR KEDE 181815Z AUTO 00000KT 10SM CLR 07/M01 A3019 RMK AO2 
METAR KEDE 181755Z AUTO 00000KT 10SM CLR 07/M01 A3019 RMK AO2 
METAR KEDE 181735Z AUTO 04003KT 10SM CLR 06/M01 A3019 RMK AO2 
METAR KEDE 181715Z AUTO 05003KT 10SM CLR 07/M01 A3021 RMK AO2 
METAR KEDE 181655Z AUTO 00000KT 10SM CLR 06/M02 A3021 RMK AO2 
METAR KEDE 181635Z AUTO 02004KT 10SM CLR 06/M01 A3023 RMK AO2 
METAR KEDE 181615Z AUTO 02004KT 10SM CLR 06/M02 A3024 RMK AO2 
METAR KEDE 181555Z AUTO 01005KT 10SM CLR 06/M02 A3025 RMK AO2